sensor_id;sensor_type;location;lat;lon;timestamp;pressure;altitude;pressure_sealevel;temperature;humidity
64679;BME280;51094;53.864;27.676;2023-04-20T00:02:10;99720.25;;;10.10;45.85
64679;BME280;51094;53.864;27.676;2023-04-20T00:04:40;99718.66;;;10.07;45.28
64679;BME280;51094;53.864;27.676;2023-04-20T00:07:13;99740.31;;;10.22;44.81
64679;BME280;51094;53.864;27.676;2023-04-20T00:09:42;99742.00;;;10.23;44.75
64679;BME280;51094;53.864;27.676;2023-04-20T00:12:11;99740.47;;;10.19;45.79
64679;BME280;51094;53.864;27.676;2023-04-20T00:14:43;99750.31;;;10.14;45.25
64679;BME280;51094;53.864;27.676;2023-04-20T00:17:10;99741.59;;;10.15;45.58
64679;BME280;51094;53.864;27.676;2023-04-20T00:19:37;99643.91;;;9.55;46.55
64679;BME280;51094;53.864;27.676;2023-04-20T00:22:14;99740.47;;;10.05;45.97
64679;BME280;51094;53.864;27.676;2023-04-20T00:24:41;99707.56;;;9.77;45.60
64679;BME280;51094;53.864;27.676;2023-04-20T00:27:10;99630.47;;;9.34;45.62
64679;BME280;51094;53.864;27.676;2023-04-20T00:29:37;99672.19;;;9.60;46.16
64679;BME280;51094;53.864;27.676;2023-04-20T00:32:04;99699.56;;;9.65;45.46
64679;BME280;51094;53.864;27.676;2023-04-20T00:34:36;99750.72;;;9.93;46.75
64679;BME280;51094;53.864;27.676;2023-04-20T00:37:03;99739.38;;;9.80;47.04
64679;BME280;51094;53.864;27.676;2023-04-20T00:39:32;99753.66;;;9.87;47.14
64679;BME280;51094;53.864;27.676;2023-04-20T00:42:08;99723.31;;;9.74;45.97
64679;BME280;51094;53.864;27.676;2023-04-20T00:44:43;99679.06;;;9.47;46.18
64679;BME280;51094;53.864;27.676;2023-04-20T00:47:10;99733.44;;;9.78;46.68
64679;BME280;51094;53.864;27.676;2023-04-20T00:49:37;99751.06;;;9.87;46.59
64679;BME280;51094;53.864;27.676;2023-04-20T00:52:04;99678.50;;;9.42;46.77
64679;BME280;51094;53.864;27.676;2023-04-20T00:54:31;99686.22;;;9.43;47.28
64679;BME280;51094;53.864;27.676;2023-04-20T00:56:58;99750.50;;;9.82;46.67
64679;BME280;51094;53.864;27.676;2023-04-20T00:59:28;99690.00;;;9.38;47.58
64679;BME280;51094;53.864;27.676;2023-04-20T01:01:57;99749.38;;;9.72;46.86
64679;BME280;51094;53.864;27.676;2023-04-20T01:04:25;99748.53;;;9.72;47.85
64679;BME280;51094;53.864;27.676;2023-04-20T01:06:55;99726.53;;;9.63;46.91
64679;BME280;51094;53.864;27.676;2023-04-20T01:09:25;99755.22;;;9.76;48.08
64679;BME280;51094;53.864;27.676;2023-04-20T01:11:51;99747.53;;;9.74;47.88
64679;BME280;51094;53.864;27.676;2023-04-20T01:14:18;99656.00;;;9.12;47.39
64679;BME280;51094;53.864;27.676;2023-04-20T01:16:56;99748.06;;;9.65;47.26
64679;BME280;51094;53.864;27.676;2023-04-20T01:19:23;99732.09;;;9.57;48.32
64679;BME280;51094;53.864;27.676;2023-04-20T01:21:50;99758.38;;;9.66;47.11
64679;BME280;51094;53.864;27.676;2023-04-20T01:24:17;99736.56;;;9.69;47.69
64679;BME280;51094;53.864;27.676;2023-04-20T01:26:44;99743.78;;;9.64;47.60
64679;BME280;51094;53.864;27.676;2023-04-20T01:29:11;99744.41;;;9.53;48.48
64679;BME280;51094;53.864;27.676;2023-04-20T01:31:41;99581.69;;;8.53;48.48
64679;BME280;51094;53.864;27.676;2023-04-20T01:34:08;99747.59;;;9.58;47.77
64679;BME280;51094;53.864;27.676;2023-04-20T01:36:35;99684.78;;;9.23;48.70
64679;BME280;51094;53.864;27.676;2023-04-20T01:39:02;99642.94;;;8.99;48.38
64679;BME280;51094;53.864;27.676;2023-04-20T01:41:29;99758.28;;;9.68;48.64
64679;BME280;51094;53.864;27.676;2023-04-20T01:43:58;99751.59;;;9.64;48.49
64679;BME280;51094;53.864;27.676;2023-04-20T01:46:29;99726.72;;;9.46;48.37
64679;BME280;51094;53.864;27.676;2023-04-20T01:48:56;99718.63;;;9.36;48.81
64679;BME280;51094;53.864;27.676;2023-04-20T01:51:23;99750.19;;;9.58;49.32
64679;BME280;51094;53.864;27.676;2023-04-20T01:53:49;99750.44;;;9.54;48.02
64679;BME280;51094;53.864;27.676;2023-04-20T01:56:16;99747.13;;;9.52;49.32
64679;BME280;51094;53.864;27.676;2023-04-20T01:58:43;99747.84;;;9.54;48.87
64679;BME280;51094;53.864;27.676;2023-04-20T02:01:10;99693.47;;;9.22;48.72
64679;BME280;51094;53.864;27.676;2023-04-20T02:03:40;99739.88;;;9.43;49.31
64679;BME280;51094;53.864;27.676;2023-04-20T02:06:07;99758.53;;;9.49;49.16
64679;BME280;51094;53.864;27.676;2023-04-20T02:08:36;99714.91;;;9.26;49.26
64679;BME280;51094;53.864;27.676;2023-04-20T02:11:13;99672.97;;;9.04;48.87
64679;BME280;51094;53.864;27.676;2023-04-20T02:13:40;99737.28;;;9.43;49.19
64679;BME280;51094;53.864;27.676;2023-04-20T02:16:07;99662.81;;;8.85;49.32
64679;BME280;51094;53.864;27.676;2023-04-20T02:18:39;99736.72;;;9.38;48.89
64679;BME280;51094;53.864;27.676;2023-04-20T02:21:13;99714.41;;;9.19;49.38
64679;BME280;51094;53.864;27.676;2023-04-20T02:23:43;99752.94;;;9.41;48.82
64679;BME280;51094;53.864;27.676;2023-04-20T02:26:12;99744.41;;;9.39;49.39
64679;BME280;51094;53.864;27.676;2023-04-20T02:28:43;99733.16;;;9.24;49.12
64679;BME280;51094;53.864;27.676;2023-04-20T02:31:10;99700.66;;;9.03;49.56
64679;BME280;51094;53.864;27.676;2023-04-20T02:33:37;99717.34;;;8.99;50.41
64679;BME280;51094;53.864;27.676;2023-04-20T02:36:04;99696.59;;;8.83;50.17
64679;BME280;51094;53.864;27.676;2023-04-20T02:38:31;99693.94;;;8.85;50.81
64679;BME280;51094;53.864;27.676;2023-04-20T02:41:01;99753.34;;;9.19;50.10
64679;BME280;51094;53.864;27.676;2023-04-20T02:43:28;99750.00;;;9.17;49.99
64679;BME280;51094;53.864;27.676;2023-04-20T02:45:58;99749.31;;;9.14;50.52
64679;BME280;51094;53.864;27.676;2023-04-20T02:48:25;99747.09;;;9.08;51.00
64679;BME280;51094;53.864;27.676;2023-04-20T02:50:56;99744.63;;;8.90;50.00
64679;BME280;51094;53.864;27.676;2023-04-20T02:53:25;99735.66;;;8.96;50.95
64679;BME280;51094;53.864;27.676;2023-04-20T02:56:07;99750.72;;;9.05;51.22
64679;BME280;51094;53.864;27.676;2023-04-20T02:58:45;99729.47;;;8.83;51.36
64679;BME280;51094;53.864;27.676;2023-04-20T03:01:24;99671.66;;;8.35;50.54
64679;BME280;51094;53.864;27.676;2023-04-20T03:04:00;99756.50;;;8.94;51.37
64679;BME280;51094;53.864;27.676;2023-04-20T03:06:28;99752.22;;;8.93;51.77
64679;BME280;51094;53.864;27.676;2023-04-20T03:08:56;99747.97;;;8.92;51.61
64679;BME280;51094;53.864;27.676;2023-04-20T03:11:49;99754.56;;;8.98;52.04
64679;BME280;51094;53.864;27.676;2023-04-20T03:14:30;99761.16;;;9.04;52.32
64679;BME280;51094;53.864;27.676;2023-04-20T03:16:57;99708.56;;;8.70;51.29
64679;BME280;51094;53.864;27.676;2023-04-20T03:19:27;99757.00;;;9.01;52.34
64679;BME280;51094;53.864;27.676;2023-04-20T03:21:54;99750.63;;;8.91;52.90
64679;BME280;51094;53.864;27.676;2023-04-20T03:24:21;99670.91;;;8.33;51.64
64679;BME280;51094;53.864;27.676;2023-04-20T03:26:49;99761.19;;;8.88;51.67
64679;BME280;51094;53.864;27.676;2023-04-20T03:29:19;99758.75;;;9.00;51.80
64679;BME280;51094;53.864;27.676;2023-04-20T03:31:46;99758.75;;;9.00;52.01
64679;BME280;51094;53.864;27.676;2023-04-20T03:34:13;99724.13;;;8.70;51.84
64679;BME280;51094;53.864;27.676;2023-04-20T03:36:43;99760.00;;;8.93;52.34
64679;BME280;51094;53.864;27.676;2023-04-20T03:39:09;99703.09;;;8.60;51.64
64679;BME280;51094;53.864;27.676;2023-04-20T03:41:39;99767.19;;;9.04;52.32
64679;BME280;51094;53.864;27.676;2023-04-20T03:44:05;99721.78;;;8.81;51.88
64679;BME280;51094;53.864;27.676;2023-04-20T03:46:35;99732.41;;;8.92;52.14
64679;BME280;51094;53.864;27.676;2023-04-20T03:49:05;99752.22;;;9.09;52.29
64679;BME280;51094;53.864;27.676;2023-04-20T03:51:32;99631.78;;;8.38;51.34
64679;BME280;51094;53.864;27.676;2023-04-20T03:54:00;99731.31;;;8.96;51.66
64679;BME280;51094;53.864;27.676;2023-04-20T03:56:27;99737.06;;;9.02;52.26
64679;BME280;51094;53.864;27.676;2023-04-20T03:58:54;99756.28;;;9.13;51.69
64679;BME280;51094;53.864;27.676;2023-04-20T04:01:24;99734.56;;;9.00;51.70
64679;BME280;51094;53.864;27.676;2023-04-20T04:03:51;99742.38;;;9.14;51.35
64679;BME280;51094;53.864;27.676;2023-04-20T04:06:21;99744.44;;;9.09;52.33
64679;BME280;51094;53.864;27.676;2023-04-20T04:08:52;99729.72;;;8.94;53.04
64679;BME280;51094;53.864;27.676;2023-04-20T04:11:19;99755.91;;;9.05;52.72
64679;BME280;51094;53.864;27.676;2023-04-20T04:13:46;99754.13;;;9.06;52.46
64679;BME280;51094;53.864;27.676;2023-04-20T04:16:13;99712.50;;;8.77;52.47
64679;BME280;51094;53.864;27.676;2023-04-20T04:18:43;99612.81;;;8.06;52.56
64679;BME280;51094;53.864;27.676;2023-04-20T04:21:10;99598.84;;;8.24;52.38
64679;BME280;51094;53.864;27.676;2023-04-20T04:23:40;99768.28;;;9.30;51.97
64679;BME280;51094;53.864;27.676;2023-04-20T04:26:23;99752.38;;;9.36;52.03
64679;BME280;51094;53.864;27.676;2023-04-20T04:28:51;99757.47;;;9.38;52.04
64679;BME280;51094;53.864;27.676;2023-04-20T04:31:19;99766.41;;;9.48;51.29
64679;BME280;51094;53.864;27.676;2023-04-20T04:33:47;99727.38;;;9.19;51.45
64679;BME280;51094;53.864;27.676;2023-04-20T04:36:29;99716.34;;;9.16;51.46
64679;BME280;51094;53.864;27.676;2023-04-20T04:38:57;99559.25;;;8.22;51.15
64679;BME280;51094;53.864;27.676;2023-04-20T04:41:27;99731.53;;;9.38;51.46
64679;BME280;51094;53.864;27.676;2023-04-20T04:44:10;99770.50;;;9.66;51.03
64679;BME280;51094;53.864;27.676;2023-04-20T04:46:41;99770.25;;;9.71;51.76
64679;BME280;51094;53.864;27.676;2023-04-20T04:49:09;99688.78;;;9.29;50.89
64679;BME280;51094;53.864;27.676;2023-04-20T04:51:39;99733.69;;;9.59;50.94
64679;BME280;51094;53.864;27.676;2023-04-20T04:54:06;99749.84;;;9.79;51.19
64679;BME280;51094;53.864;27.676;2023-04-20T04:56:36;99768.69;;;9.96;50.42
64679;BME280;51094;53.864;27.676;2023-04-20T04:59:13;99690.84;;;9.52;49.69
64679;BME280;51094;53.864;27.676;2023-04-20T05:01:48;99763.69;;;10.08;50.01
64679;BME280;51094;53.864;27.676;2023-04-20T05:04:18;99653.22;;;9.45;50.06
64679;BME280;51094;53.864;27.676;2023-04-20T05:06:48;99767.25;;;10.21;50.55
64679;BME280;51094;53.864;27.676;2023-04-20T05:09:34;99770.03;;;10.32;49.58
64679;BME280;51094;53.864;27.676;2023-04-20T05:12:21;99648.38;;;9.67;49.55
64679;BME280;51094;53.864;27.676;2023-04-20T05:14:54;99766.97;;;10.40;49.21
64679;BME280;51094;53.864;27.676;2023-04-20T05:17:32;99790.69;;;10.48;49.60
64679;BME280;51094;53.864;27.676;2023-04-20T05:20:01;99761.81;;;10.52;49.51
64679;BME280;51094;53.864;27.676;2023-04-20T05:22:31;99734.28;;;10.36;49.20
64679;BME280;51094;53.864;27.676;2023-04-20T05:25:03;99745.38;;;10.52;49.33
64679;BME280;51094;53.864;27.676;2023-04-20T05:27:43;99684.72;;;10.24;48.24
64679;BME280;51094;53.864;27.676;2023-04-20T05:30:10;99772.06;;;10.82;48.28
64679;BME280;51094;53.864;27.676;2023-04-20T05:32:48;99757.88;;;10.74;48.71
64679;BME280;51094;53.864;27.676;2023-04-20T05:35:19;99756.75;;;10.78;47.62
64679;BME280;51094;53.864;27.676;2023-04-20T05:37:46;99772.84;;;10.97;47.87
64679;BME280;51094;53.864;27.676;2023-04-20T05:40:16;99741.47;;;10.86;47.94
64679;BME280;51094;53.864;27.676;2023-04-20T05:42:43;99781.59;;;11.23;47.60
64679;BME280;51094;53.864;27.676;2023-04-20T05:45:15;99778.44;;;11.30;47.64
64679;BME280;51094;53.864;27.676;2023-04-20T05:47:55;99645.84;;;10.50;47.71
64679;BME280;51094;53.864;27.676;2023-04-20T05:50:25;99752.75;;;11.26;47.49
64679;BME280;51094;53.864;27.676;2023-04-20T05:52:52;99774.44;;;11.52;47.12
64679;BME280;51094;53.864;27.676;2023-04-20T05:55:22;99786.22;;;11.57;46.82
64679;BME280;51094;53.864;27.676;2023-04-20T05:57:51;99765.56;;;11.42;46.62
64679;BME280;51094;53.864;27.676;2023-04-20T06:00:18;99782.59;;;11.60;46.94
64679;BME280;51094;53.864;27.676;2023-04-20T06:02:47;99790.22;;;11.63;46.83
64679;BME280;51094;53.864;27.676;2023-04-20T06:05:14;99775.00;;;11.70;46.29
64679;BME280;51094;53.864;27.676;2023-04-20T06:07:41;99788.53;;;11.75;46.40
64679;BME280;51094;53.864;27.676;2023-04-20T06:10:11;99747.38;;;11.54;46.22
64679;BME280;51094;53.864;27.676;2023-04-20T06:12:38;99733.09;;;11.60;46.57
64679;BME280;51094;53.864;27.676;2023-04-20T06:15:05;99779.00;;;12.01;46.22
64679;BME280;51094;53.864;27.676;2023-04-20T06:17:41;99794.50;;;12.15;46.25
64679;BME280;51094;53.864;27.676;2023-04-20T06:20:13;99719.25;;;11.85;46.13
64679;BME280;51094;53.864;27.676;2023-04-20T06:22:43;99752.78;;;12.15;45.65
64679;BME280;51094;53.864;27.676;2023-04-20T06:25:10;99571.31;;;10.88;45.59
64679;BME280;51094;53.864;27.676;2023-04-20T06:27:38;99769.16;;;12.42;44.93
64679;BME280;51094;53.864;27.676;2023-04-20T06:30:05;99806.47;;;12.55;45.07
64679;BME280;51094;53.864;27.676;2023-04-20T06:32:34;99784.00;;;12.65;44.77
64679;BME280;51094;53.864;27.676;2023-04-20T06:35:02;99786.69;;;12.77;45.50
64679;BME280;51094;53.864;27.676;2023-04-20T06:37:29;99762.66;;;12.84;45.60
64679;BME280;51094;53.864;27.676;2023-04-20T06:39:57;99783.28;;;13.11;44.82
64679;BME280;51094;53.864;27.676;2023-04-20T06:42:28;99784.56;;;13.18;44.43
64679;BME280;51094;53.864;27.676;2023-04-20T06:45:00;99733.06;;;12.96;44.74
64679;BME280;51094;53.864;27.676;2023-04-20T06:47:28;99757.91;;;13.13;43.98
64679;BME280;51094;53.864;27.676;2023-04-20T06:50:04;99770.81;;;13.27;43.78
64679;BME280;51094;53.864;27.676;2023-04-20T06:52:38;99793.31;;;13.41;43.70
64679;BME280;51094;53.864;27.676;2023-04-20T06:55:08;99798.19;;;13.46;44.47
64679;BME280;51094;53.864;27.676;2023-04-20T06:57:35;99670.19;;;12.76;44.02
64679;BME280;51094;53.864;27.676;2023-04-20T07:00:06;99796.00;;;13.63;43.28
64679;BME280;51094;53.864;27.676;2023-04-20T07:02:43;99790.34;;;13.81;43.41
64679;BME280;51094;53.864;27.676;2023-04-20T07:05:11;99773.81;;;13.80;42.33
64679;BME280;51094;53.864;27.676;2023-04-20T07:07:38;99704.53;;;13.63;42.89
64679;BME280;51094;53.864;27.676;2023-04-20T07:10:10;99738.75;;;13.94;42.80
64679;BME280;51094;53.864;27.676;2023-04-20T07:12:38;99793.09;;;14.35;42.20
64679;BME280;51094;53.864;27.676;2023-04-20T07:15:08;99722.03;;;14.08;41.81
64679;BME280;51094;53.864;27.676;2023-04-20T07:17:35;99772.44;;;14.43;40.91
64679;BME280;51094;53.864;27.676;2023-04-20T07:20:02;99788.25;;;14.64;40.80
64679;BME280;51094;53.864;27.676;2023-04-20T07:22:38;99775.75;;;14.68;39.90
64679;BME280;51094;53.864;27.676;2023-04-20T07:25:08;99794.13;;;14.88;40.51
64679;BME280;51094;53.864;27.676;2023-04-20T07:27:37;99788.50;;;15.04;41.36
64679;BME280;51094;53.864;27.676;2023-04-20T07:30:06;99767.81;;;15.01;39.16
64679;BME280;51094;53.864;27.676;2023-04-20T07:32:38;99791.78;;;15.17;39.79
64679;BME280;51094;53.864;27.676;2023-04-20T07:35:05;99785.22;;;15.23;39.62
64679;BME280;51094;53.864;27.676;2023-04-20T07:37:33;99788.66;;;15.23;39.47
64679;BME280;51094;53.864;27.676;2023-04-20T07:40:01;99789.75;;;15.21;38.70
64679;BME280;51094;53.864;27.676;2023-04-20T07:42:32;99782.00;;;15.19;39.43
64679;BME280;51094;53.864;27.676;2023-04-20T07:45:04;99798.22;;;15.45;40.32
64679;BME280;51094;53.864;27.676;2023-04-20T07:47:33;99755.34;;;15.46;39.71
64679;BME280;51094;53.864;27.676;2023-04-20T07:50:03;99788.56;;;15.78;40.71
64679;BME280;51094;53.864;27.676;2023-04-20T07:52:30;99785.75;;;15.90;38.90
64679;BME280;51094;53.864;27.676;2023-04-20T07:54:57;99746.53;;;15.68;38.58
64679;BME280;51094;53.864;27.676;2023-04-20T07:57:25;99757.91;;;15.78;38.67
64679;BME280;51094;53.864;27.676;2023-04-20T07:59:52;99764.06;;;15.88;38.73
64679;BME280;51094;53.864;27.676;2023-04-20T08:02:19;99798.50;;;16.05;37.31
64679;BME280;51094;53.864;27.676;2023-04-20T08:04:46;99754.06;;;15.82;38.77
64679;BME280;51094;53.864;27.676;2023-04-20T08:07:14;99786.19;;;16.26;37.33
64679;BME280;51094;53.864;27.676;2023-04-20T08:09:49;99776.13;;;16.31;38.13
64679;BME280;51094;53.864;27.676;2023-04-20T08:12:19;99776.19;;;16.50;37.18
64679;BME280;51094;53.864;27.676;2023-04-20T08:14:49;99653.34;;;15.85;36.32
64679;BME280;51094;53.864;27.676;2023-04-20T08:17:17;99789.00;;;16.74;35.94
64679;BME280;51094;53.864;27.676;2023-04-20T08:19:44;99781.84;;;16.86;35.80
64679;BME280;51094;53.864;27.676;2023-04-20T08:22:15;99777.28;;;16.98;36.04
64679;BME280;51094;53.864;27.676;2023-04-20T08:24:42;99793.50;;;17.22;36.45
64679;BME280;51094;53.864;27.676;2023-04-20T08:27:12;99628.91;;;16.53;36.43
64679;BME280;51094;53.864;27.676;2023-04-20T08:29:44;99751.44;;;17.32;34.97
64679;BME280;51094;53.864;27.676;2023-04-20T08:32:12;99747.03;;;17.22;34.87
64679;BME280;51094;53.864;27.676;2023-04-20T08:34:39;99782.00;;;17.52;35.14
64679;BME280;51094;53.864;27.676;2023-04-20T08:37:07;99771.47;;;17.52;34.79
64679;BME280;51094;53.864;27.676;2023-04-20T08:39:39;99778.28;;;17.74;34.97
64679;BME280;51094;53.864;27.676;2023-04-20T08:42:06;99777.81;;;17.78;35.39
64679;BME280;51094;53.864;27.676;2023-04-20T08:44:35;99779.44;;;17.99;35.36
64679;BME280;51094;53.864;27.676;2023-04-20T08:47:02;99761.94;;;18.17;34.98
64679;BME280;51094;53.864;27.676;2023-04-20T08:49:32;99779.03;;;18.31;33.28
64679;BME280;51094;53.864;27.676;2023-04-20T08:52:02;99700.69;;;17.87;33.79
64679;BME280;51094;53.864;27.676;2023-04-20T08:54:29;99779.84;;;18.41;34.36
64679;BME280;51094;53.864;27.676;2023-04-20T08:56:56;99786.56;;;18.63;32.92
64679;BME280;51094;53.864;27.676;2023-04-20T08:59:25;99788.69;;;18.77;32.92
64679;BME280;51094;53.864;27.676;2023-04-20T09:01:53;99783.25;;;18.78;32.90
64679;BME280;51094;53.864;27.676;2023-04-20T09:04:23;99776.66;;;18.92;33.00
64679;BME280;51094;53.864;27.676;2023-04-20T09:06:56;99777.72;;;18.99;32.52
64679;BME280;51094;53.864;27.676;2023-04-20T09:09:25;99734.72;;;19.16;31.14
64679;BME280;51094;53.864;27.676;2023-04-20T09:12:06;99774.63;;;19.57;31.76
64679;BME280;51094;53.864;27.676;2023-04-20T09:14:46;99730.69;;;19.48;29.73
64679;BME280;51094;53.864;27.676;2023-04-20T09:17:15;99709.34;;;19.59;30.38
64679;BME280;51094;53.864;27.676;2023-04-20T09:19:44;99756.84;;;20.11;30.13
64679;BME280;51094;53.864;27.676;2023-04-20T09:22:14;99758.84;;;20.17;28.45
64679;BME280;51094;53.864;27.676;2023-04-20T09:24:40;99767.13;;;20.22;28.54
64679;BME280;51094;53.864;27.676;2023-04-20T09:27:15;99756.06;;;20.18;27.28
64679;BME280;51094;53.864;27.676;2023-04-20T09:29:55;99752.31;;;20.37;28.61
64679;BME280;51094;53.864;27.676;2023-04-20T09:32:23;99728.97;;;20.50;27.13
64679;BME280;51094;53.864;27.676;2023-04-20T09:34:55;99723.69;;;20.50;28.81
64679;BME280;51094;53.864;27.676;2023-04-20T09:37:22;99753.50;;;20.85;27.97
64679;BME280;51094;53.864;27.676;2023-04-20T09:39:50;99745.56;;;20.93;26.80
64679;BME280;51094;53.864;27.676;2023-04-20T09:42:17;99658.59;;;20.41;28.24
64679;BME280;51094;53.864;27.676;2023-04-20T09:44:44;99754.22;;;21.11;27.08
64679;BME280;51094;53.864;27.676;2023-04-20T09:47:20;99725.47;;;21.41;27.10
64679;BME280;51094;53.864;27.676;2023-04-20T09:49:48;99749.06;;;21.67;26.80
64679;BME280;51094;53.864;27.676;2023-04-20T09:52:18;99720.84;;;21.51;26.45
64679;BME280;51094;53.864;27.676;2023-04-20T09:54:47;99758.09;;;22.13;26.24
64679;BME280;51094;53.864;27.676;2023-04-20T09:57:14;99743.88;;;22.53;25.61
64679;BME280;51094;53.864;27.676;2023-04-20T09:59:42;99722.94;;;22.35;25.35
64679;BME280;51094;53.864;27.676;2023-04-20T10:02:10;99714.63;;;22.46;24.83
64679;BME280;51094;53.864;27.676;2023-04-20T10:04:57;99692.81;;;22.59;26.35
64679;BME280;51094;53.864;27.676;2023-04-20T10:07:29;99729.75;;;23.14;25.21
64679;BME280;51094;53.864;27.676;2023-04-20T10:10:14;99705.31;;;23.04;24.58
64679;BME280;51094;53.864;27.676;2023-04-20T10:12:54;99732.06;;;23.17;24.10
64679;BME280;51094;53.864;27.676;2023-04-20T10:15:22;99722.09;;;23.19;23.95
64679;BME280;51094;53.864;27.676;2023-04-20T10:17:49;99655.00;;;23.34;23.75
64679;BME280;51094;53.864;27.676;2023-04-20T10:20:24;99734.41;;;23.87;23.08
64679;BME280;51094;53.864;27.676;2023-04-20T10:23:06;99678.13;;;23.77;22.92
64679;BME280;51094;53.864;27.676;2023-04-20T10:25:34;99682.34;;;23.49;22.29
64679;BME280;51094;53.864;27.676;2023-04-20T10:28:05;99714.72;;;23.97;22.47
64679;BME280;51094;53.864;27.676;2023-04-20T10:30:36;99719.50;;;24.01;22.26
64679;BME280;51094;53.864;27.676;2023-04-20T10:33:11;99731.66;;;23.29;22.97
64679;BME280;51094;53.864;27.676;2023-04-20T10:38:13;99686.41;;;22.84;22.66
64679;BME280;51094;53.864;27.676;2023-04-20T10:40:42;99717.16;;;22.63;22.63
64679;BME280;51094;53.864;27.676;2023-04-20T10:43:21;99676.78;;;23.06;24.00
64679;BME280;51094;53.864;27.676;2023-04-20T10:45:49;99692.75;;;23.73;23.41
64679;BME280;51094;53.864;27.676;2023-04-20T10:48:16;99621.59;;;23.83;21.92
64679;BME280;51094;53.864;27.676;2023-04-20T10:50:49;99640.16;;;24.13;21.07
64679;BME280;51094;53.864;27.676;2023-04-20T10:53:16;99706.59;;;24.85;22.01
64679;BME280;51094;53.864;27.676;2023-04-20T10:55:43;99657.50;;;25.02;21.25
64679;BME280;51094;53.864;27.676;2023-04-20T10:58:22;99644.56;;;24.99;21.93
64679;BME280;51094;53.864;27.676;2023-04-20T11:00:57;99692.75;;;25.88;20.55
64679;BME280;51094;53.864;27.676;2023-04-20T11:03:27;99689.41;;;26.21;21.56
64679;BME280;51094;53.864;27.676;2023-04-20T11:05:55;99681.97;;;26.09;19.56
64679;BME280;51094;53.864;27.676;2023-04-20T11:08:40;99694.75;;;26.27;19.35
64679;BME280;51094;53.864;27.676;2023-04-20T11:11:19;99692.47;;;25.76;19.38
64679;BME280;51094;53.864;27.676;2023-04-20T11:15:38;99690.56;;;26.52;19.38
64679;BME280;51094;53.864;27.676;2023-04-20T11:18:12;99673.22;;;26.96;19.39
64679;BME280;51094;53.864;27.676;2023-04-20T11:20:52;99567.06;;;26.32;19.59
64679;BME280;51094;53.864;27.676;2023-04-20T11:23:24;99589.84;;;26.94;18.24
64679;BME280;51094;53.864;27.676;2023-04-20T11:25:57;99676.03;;;27.87;18.06
64679;BME280;51094;53.864;27.676;2023-04-20T11:28:24;99648.78;;;28.23;18.15
64679;BME280;51094;53.864;27.676;2023-04-20T11:30:56;99642.06;;;28.52;17.49
64679;BME280;51094;53.864;27.676;2023-04-20T11:33:26;99680.69;;;28.94;17.40
64679;BME280;51094;53.864;27.676;2023-04-20T11:35:58;99663.47;;;28.84;17.27
64679;BME280;51094;53.864;27.676;2023-04-20T11:38:28;99685.19;;;29.00;17.26
64679;BME280;51094;53.864;27.676;2023-04-20T11:40:57;99683.78;;;28.15;16.24
64679;BME280;51094;53.864;27.676;2023-04-20T11:43:30;99672.53;;;28.76;16.10
64679;BME280;51094;53.864;27.676;2023-04-20T11:46:11;99641.72;;;28.67;15.74
64679;BME280;51094;53.864;27.676;2023-04-20T11:48:41;99686.41;;;27.24;16.60
64679;BME280;51094;53.864;27.676;2023-04-20T11:51:14;99607.13;;;25.63;17.77
64679;BME280;51094;53.864;27.676;2023-04-20T11:53:41;99661.22;;;25.08;18.09
64679;BME280;51094;53.864;27.676;2023-04-20T11:56:10;99610.63;;;26.11;16.49
64679;BME280;51094;53.864;27.676;2023-04-20T11:58:37;99630.31;;;29.09;15.88
64679;BME280;51094;53.864;27.676;2023-04-20T12:01:04;99664.25;;;32.49;13.34
64679;BME280;51094;53.864;27.676;2023-04-20T12:03:33;99652.69;;;34.31;12.80
64679;BME280;51094;53.864;27.676;2023-04-20T12:06:00;99569.66;;;34.16;11.66
64679;BME280;51094;53.864;27.676;2023-04-20T12:08:28;99660.19;;;35.99;10.96
64679;BME280;51094;53.864;27.676;2023-04-20T12:10:55;99593.78;;;33.19;11.25
64679;BME280;51094;53.864;27.676;2023-04-20T12:13:24;99652.94;;;35.57;11.56
64679;BME280;51094;53.864;27.676;2023-04-20T12:15:51;99646.22;;;34.86;11.03
64679;BME280;51094;53.864;27.676;2023-04-20T12:18:18;99636.38;;;36.01;11.81
64679;BME280;51094;53.864;27.676;2023-04-20T12:20:45;99636.88;;;34.18;11.14
64679;BME280;51094;53.864;27.676;2023-04-20T12:23:12;99624.28;;;30.30;12.77
64679;BME280;51094;53.864;27.676;2023-04-20T12:25:44;99648.28;;;27.81;15.11
64679;BME280;51094;53.864;27.676;2023-04-20T12:28:13;99647.78;;;27.07;16.35
64679;BME280;51094;53.864;27.676;2023-04-20T12:30:42;99640.72;;;31.40;13.77
64679;BME280;51094;53.864;27.676;2023-04-20T12:33:09;99629.44;;;33.43;11.62
64679;BME280;51094;53.864;27.676;2023-04-20T12:35:41;99484.25;;;34.69;10.67
64679;BME280;51094;53.864;27.676;2023-04-20T12:38:10;99555.53;;;36.30;10.09
64679;BME280;51094;53.864;27.676;2023-04-20T12:40:39;99603.53;;;37.85;9.29
64679;BME280;51094;53.864;27.676;2023-04-20T12:43:06;99551.56;;;35.70;11.17
64679;BME280;51094;53.864;27.676;2023-04-20T12:45:33;99565.25;;;31.94;11.41
64679;BME280;51094;53.864;27.676;2023-04-20T12:48:00;99595.81;;;29.20;14.43
64679;BME280;51094;53.864;27.676;2023-04-20T12:50:30;99587.41;;;28.35;14.33
64679;BME280;51094;53.864;27.676;2023-04-20T12:52:57;99458.06;;;26.95;15.63
64679;BME280;51094;53.864;27.676;2023-04-20T12:55:28;99525.69;;;25.75;16.63
64679;BME280;51094;53.864;27.676;2023-04-20T12:57:57;99537.31;;;24.07;18.64
64679;BME280;51094;53.864;27.676;2023-04-20T13:00:26;99612.06;;;23.30;20.70
64679;BME280;51094;53.864;27.676;2023-04-20T13:02:53;99582.84;;;22.78;20.84
64679;BME280;51094;53.864;27.676;2023-04-20T13:05:20;99605.81;;;24.69;20.99
64679;BME280;51094;53.864;27.676;2023-04-20T13:07:51;99591.84;;;27.58;16.53
64679;BME280;51094;53.864;27.676;2023-04-20T13:10:18;99567.16;;;29.45;15.41
64679;BME280;51094;53.864;27.676;2023-04-20T13:12:50;99589.44;;;31.42;14.26